< < Back
Terminal Aerodrome Forecast


Current Version              Previous Versions:   1  2  3  4  5  6  7  8  9  

Terminal Aerodrome Forecast

112
FTUS42 KTAE 041700
TAFTLH
TAF
KTLH 041725Z 0418/0518 19011G21KT P6SM SCT015 BKN029
     FM050100 19003KT 5SM BR BKN005
     FM050500 VRB03KT 1/2SM FG OVC003
     FM051500 20007KT 4SM BR OVC007=

Latest METAR

144
SAUS80 KWBC 051000 RRB
MTRTLH
METAR KTLH 050953Z AUTO 20004KT 10SM FEW018 BKN075 21/19 A3001 RMK AO2
SLP161 T02060189 $


USA.gov is the U.S. government's official web portal to all federal, state and local government web resources and services.